createdAt,value
2022-08-17T00:01:38.508Z,4.90
2022-08-17T00:04:18.984Z,4.70
2022-08-17T00:06:45.897Z,4.97
2022-08-17T00:09:18.248Z,4.93
2022-08-17T00:12:41.578Z,5.00
2022-08-17T00:14:35.980Z,4.93
2022-08-17T00:17:03.868Z,4.60
2022-08-17T00:19:34.051Z,5.75
2022-08-17T00:22:33.717Z,5.47
2022-08-17T00:24:50.091Z,5.20
2022-08-17T00:27:17.879Z,5.70
2022-08-17T00:29:45.891Z,6.47
2022-08-17T00:33:12.568Z,5.60
2022-08-17T00:35:05.774Z,5.95
2022-08-17T00:37:32.289Z,6.18
2022-08-17T00:39:58.892Z,6.78
2022-08-17T00:42:30.771Z,7.05
2022-08-17T00:44:57.990Z,7.28
2022-08-17T00:47:24.655Z,5.93
2022-08-17T00:49:51.078Z,6.82
2022-08-17T00:52:22.976Z,6.63
2022-08-17T00:54:53.989Z,6.45
2022-08-17T00:57:30.004Z,6.35
2022-08-17T01:00:03.144Z,6.05
2022-08-17T01:02:41.201Z,6.43
2022-08-17T01:05:14.745Z,6.22
2022-08-17T01:07:42.290Z,5.93
2022-08-17T01:10:58.158Z,5.93
2022-08-17T01:12:57.882Z,6.45
2022-08-17T01:15:24.419Z,6.15
2022-08-17T01:17:52.965Z,6.55
2022-08-17T01:20:19.522Z,5.68
2022-08-17T01:22:46.030Z,6.05
2022-08-17T01:25:12.787Z,6.30
2022-08-17T01:27:40.981Z,5.63
2022-08-17T01:30:59.034Z,5.78
2022-08-17T01:33:00.572Z,6.38
2022-08-17T01:35:27.119Z,5.63
2022-08-17T01:37:53.694Z,5.40
2022-08-17T01:40:35.173Z,5.95
2022-08-17T01:43:10.944Z,5.45
2022-08-17T01:45:48.656Z,5.75
2022-08-17T01:48:36.455Z,5.65
2022-08-17T01:51:03.985Z,6.05
2022-08-17T01:53:44.179Z,6.22
2022-08-17T01:56:13.157Z,6.07
2022-08-17T01:58:41.442Z,7.28
2022-08-17T02:01:08.894Z,6.45
2022-08-17T02:03:38.284Z,6.32
2022-08-17T02:06:06.065Z,5.90
2022-08-17T02:09:01.801Z,6.88
2022-08-17T02:11:32.290Z,6.05
2022-08-17T02:14:03.443Z,6.20
2022-08-17T02:16:36.984Z,6.60
2022-08-17T02:19:06.493Z,6.80
2022-08-17T02:21:34.637Z,7.25
2022-08-17T02:24:01.689Z,7.05
2022-08-17T02:26:28.125Z,6.28
2022-08-17T02:28:54.832Z,6.70
2022-08-17T02:31:21.342Z,6.90
2022-08-17T02:34:00.455Z,6.55
2022-08-17T02:36:31.057Z,6.30
2022-08-17T02:38:58.564Z,6.75
2022-08-17T02:41:40.878Z,6.50
2022-08-17T02:44:07.547Z,6.25
2022-08-17T02:46:34.404Z,6.50
2022-08-17T02:49:00.885Z,6.15
2022-08-17T02:51:27.714Z,6.38
2022-08-17T02:54:35.738Z,6.18
2022-08-17T02:56:41.203Z,5.53
2022-08-17T02:59:07.721Z,5.88
2022-08-17T03:01:34.552Z,5.93
2022-08-17T03:04:01.119Z,7.13
2022-08-17T03:06:29.201Z,6.55
2022-08-17T03:08:55.637Z,7.13
2022-08-17T03:11:22.087Z,7.05
2022-08-17T03:13:48.497Z,6.97
2022-08-17T03:16:21.056Z,7.00
2022-08-17T03:18:48.558Z,6.47
2022-08-17T03:21:15.010Z,6.40
2022-08-17T03:23:42.177Z,6.32
2022-08-17T03:26:12.304Z,6.25
2022-08-17T03:28:42.304Z,6.32
2022-08-17T03:31:08.822Z,6.13
2022-08-17T03:33:35.310Z,5.47
2022-08-17T03:36:01.763Z,5.97
2022-08-17T03:38:28.245Z,5.18
2022-08-17T03:40:59.528Z,5.63
2022-08-17T03:43:32.588Z,6.13
2022-08-17T03:46:34.619Z,6.38
2022-08-17T03:49:25.222Z,6.25
2022-08-17T03:52:13.131Z,5.90
2022-08-17T03:54:59.012Z,6.57
2022-08-17T03:57:26.122Z,6.25
2022-08-17T03:59:53.944Z,5.88
2022-08-17T04:02:27.075Z,6.47
2022-08-17T04:04:54.202Z,6.20
2022-08-17T04:07:22.692Z,6.38
2022-08-17T04:09:49.695Z,5.30
2022-08-17T04:12:18.941Z,6.45
2022-08-17T04:14:53.088Z,5.55
2022-08-17T04:17:25.604Z,6.68
2022-08-17T04:19:52.948Z,6.65
2022-08-17T04:22:30.099Z,7.32
2022-08-17T04:25:14.332Z,6.38
2022-08-17T04:27:40.941Z,6.38
2022-08-17T04:30:08.126Z,6.22
2022-08-17T04:33:04.697Z,6.57
2022-08-17T04:35:49.116Z,6.78
2022-08-17T04:38:19.212Z,6.45
2022-08-17T04:41:11.321Z,6.40
2022-08-17T04:43:40.009Z,6.20
2022-08-17T04:46:18.392Z,6.15
2022-08-17T04:48:50.742Z,6.80
2022-08-17T04:51:23.328Z,6.50
2022-08-17T04:53:54.111Z,6.10
2022-08-17T04:56:22.217Z,6.53
2022-08-17T04:58:50.470Z,6.90
2022-08-17T05:01:23.189Z,6.40
2022-08-17T05:03:51.076Z,6.30
2022-08-17T05:06:17.525Z,6.47
2022-08-17T05:08:47.105Z,7.00
2022-08-17T05:11:14.223Z,6.82
2022-08-17T05:13:40.641Z,6.60
2022-08-17T05:16:07.220Z,7.40
2022-08-17T05:18:33.754Z,6.88
2022-08-17T05:21:00.239Z,6.75
2022-08-17T05:23:41.746Z,8.90
2022-08-17T05:26:20.406Z,7.63
2022-08-17T05:29:16.371Z,7.80
2022-08-17T05:31:42.791Z,7.30
2022-08-17T05:34:09.205Z,9.18
2022-08-17T05:36:41.565Z,8.30
2022-08-17T05:39:17.068Z,8.05
2022-08-17T05:41:46.053Z,8.32
2022-08-17T05:44:12.650Z,8.73
2022-08-17T05:46:43.602Z,8.32
2022-08-17T05:49:11.171Z,8.95
2022-08-17T05:51:59.070Z,9.05
2022-08-17T05:54:50.840Z,8.85
2022-08-17T05:57:30.680Z,9.85
2022-08-17T06:00:16.938Z,9.00
2022-08-17T06:03:10.644Z,8.73
2022-08-17T06:06:31.536Z,9.07
2022-08-17T06:09:10.297Z,8.30
2022-08-17T06:12:30.101Z,8.60
2022-08-17T06:15:24.805Z,8.82
2022-08-17T06:17:58.734Z,9.75
2022-08-17T06:20:27.793Z,7.25
2022-08-17T06:23:05.453Z,8.70
2022-08-17T06:25:39.217Z,8.63
2022-08-17T06:28:13.877Z,8.25
2022-08-17T06:31:03.212Z,6.97
2022-08-17T06:33:35.421Z,8.45
2022-08-17T06:36:26.395Z,7.35
2022-08-17T06:39:24.455Z,7.10
2022-08-17T06:43:00.819Z,6.32
2022-08-17T06:45:28.663Z,7.13
2022-08-17T06:48:10.445Z,6.93
2022-08-17T06:50:38.609Z,6.60
2022-08-17T06:53:31.649Z,6.28
2022-08-17T06:56:09.173Z,6.75
2022-08-17T06:58:38.813Z,5.90
2022-08-17T07:01:10.106Z,5.90
2022-08-17T07:03:44.410Z,5.82
2022-08-17T07:06:16.690Z,5.50
2022-08-17T07:09:02.254Z,4.60
2022-08-17T07:11:40.511Z,4.82
2022-08-17T07:14:19.612Z,4.63
2022-08-17T07:16:56.403Z,4.50
2022-08-17T07:19:26.447Z,4.60
2022-08-17T07:22:30.339Z,4.78
2022-08-17T07:25:18.425Z,4.43
2022-08-17T07:27:53.965Z,4.68
2022-08-17T07:30:27.148Z,4.70
2022-08-17T07:32:58.383Z,4.40
2022-08-17T07:35:41.344Z,4.20
2022-08-17T07:38:25.259Z,4.60
2022-08-17T07:40:57.557Z,4.63
2022-08-17T07:43:36.601Z,4.25
2022-08-17T07:46:24.644Z,4.15
2022-08-17T07:48:54.932Z,4.28
2022-08-17T07:51:29.205Z,4.55
2022-08-17T07:54:13.479Z,4.45
2022-08-17T07:56:43.779Z,4.45
2022-08-17T07:59:13.190Z,4.43
2022-08-17T08:01:44.489Z,4.65
2022-08-17T08:04:58.908Z,4.53
2022-08-17T08:07:16.757Z,4.80
2022-08-17T08:09:45.477Z,4.57
2022-08-17T08:12:40.101Z,4.35
2022-08-17T08:15:33.235Z,4.97
2022-08-17T08:18:54.559Z,4.60
2022-08-17T08:21:47.366Z,4.85
2022-08-17T08:24:30.087Z,4.72
2022-08-17T08:27:04.925Z,5.32
2022-08-17T08:30:00.541Z,4.50
2022-08-17T08:33:02.232Z,4.03
2022-08-17T08:35:50.469Z,4.47
2022-08-17T08:38:28.233Z,4.55
2022-08-17T08:41:04.131Z,4.75
2022-08-17T08:43:53.236Z,4.15
2022-08-17T08:46:40.624Z,4.45
2022-08-17T08:49:17.473Z,4.03
2022-08-17T08:51:52.648Z,3.97
2022-08-17T08:54:31.430Z,4.03
2022-08-17T09:00:14.843Z,4.07
2022-08-17T09:02:59.860Z,4.10
2022-08-17T09:05:52.470Z,4.43
2022-08-17T09:08:36.568Z,4.10
2022-08-17T09:11:24.719Z,4.18
2022-08-17T09:14:21.235Z,4.30
2022-08-17T09:17:15.164Z,3.90
2022-08-17T09:19:57.786Z,4.05
2022-08-17T09:22:38.528Z,3.90
2022-08-17T09:25:21.703Z,4.13
2022-08-17T09:28:32.280Z,4.32
2022-08-17T09:31:06.682Z,4.55
2022-08-17T09:33:39.806Z,4.40
2022-08-17T09:36:43.241Z,4.20
2022-08-17T09:39:17.188Z,4.07
2022-08-17T09:42:03.283Z,3.55
2022-08-17T09:44:51.529Z,3.90
2022-08-17T09:47:55.683Z,3.88
2022-08-17T09:51:03.409Z,3.55
2022-08-17T09:53:37.145Z,3.55
2022-08-17T09:56:46.015Z,4.07
2022-08-17T09:59:38.601Z,3.70
2022-08-17T10:02:25.206Z,3.80
2022-08-17T10:05:32.314Z,4.03
2022-08-17T10:08:23.889Z,4.40
2022-08-17T10:11:48.286Z,4.07
2022-08-17T10:14:43.997Z,4.43
2022-08-17T10:17:21.397Z,4.20
2022-08-17T10:20:19.058Z,4.45
2022-08-17T10:23:13.339Z,4.45
2022-08-17T10:26:04.768Z,3.90
2022-08-17T10:28:40.046Z,4.25
2022-08-17T10:31:33.650Z,4.40
2022-08-17T10:34:11.818Z,4.07
2022-08-17T10:36:54.666Z,4.70
2022-08-17T10:39:26.354Z,4.22
2022-08-17T10:42:00.520Z,4.30
2022-08-17T10:44:48.360Z,4.10
2022-08-17T10:47:18.137Z,4.47
2022-08-17T10:49:53.918Z,4.40
2022-08-17T10:52:20.725Z,4.28
2022-08-17T10:54:58.625Z,4.28
2022-08-17T10:57:31.854Z,4.32
2022-08-17T11:00:06.926Z,3.80
2022-08-17T11:02:52.373Z,4.10
2022-08-17T11:05:41.509Z,3.63
2022-08-17T11:08:51.991Z,3.80
2022-08-17T11:11:36.145Z,3.40
2022-08-17T11:14:27.207Z,3.58
2022-08-17T11:17:26.815Z,3.05
2022-08-17T11:20:22.593Z,3.30
2022-08-17T11:23:10.759Z,3.50
2022-08-17T11:25:47.187Z,3.60
2022-08-17T11:28:21.048Z,3.70
2022-08-17T11:30:49.759Z,3.50
2022-08-17T11:33:36.775Z,3.78
2022-08-17T11:36:11.757Z,4.10
2022-08-17T11:38:59.666Z,4.20
2022-08-17T11:42:07.757Z,3.70
2022-08-17T11:44:53.102Z,3.92
2022-08-17T11:48:23.825Z,3.88
2022-08-17T11:51:16.706Z,3.70
2022-08-17T11:53:43.061Z,3.67
2022-08-17T11:56:31.480Z,4.00
2022-08-17T11:59:00.437Z,4.18
2022-08-17T12:01:26.908Z,3.83
2022-08-17T12:03:58.867Z,4.55
2022-08-17T12:06:42.054Z,3.80
2022-08-17T12:09:17.494Z,4.13
2022-08-17T12:12:01.645Z,3.60
2022-08-17T12:15:05.686Z,4.00
2022-08-17T12:17:39.498Z,3.92
2022-08-17T12:20:24.340Z,3.67
2022-08-17T12:23:18.097Z,4.53
2022-08-17T12:25:56.643Z,3.95
2022-08-17T12:28:32.540Z,4.15
2022-08-17T12:31:06.518Z,3.80
2022-08-17T12:33:35.951Z,4.38
2022-08-17T12:36:06.475Z,4.65
2022-08-17T12:38:36.073Z,4.32
2022-08-17T12:41:25.103Z,3.85
2022-08-17T12:44:05.955Z,3.80
2022-08-17T12:46:45.917Z,4.15
2022-08-17T12:49:36.930Z,4.13
2022-08-17T12:52:06.512Z,4.10
2022-08-17T12:54:41.983Z,3.75
2022-08-17T12:57:16.661Z,3.60
2022-08-17T12:59:47.520Z,3.78
2022-08-17T13:02:28.355Z,3.75
2022-08-17T13:04:57.965Z,4.63
2022-08-17T13:07:29.995Z,4.20
2022-08-17T13:09:56.592Z,3.70
2022-08-17T13:12:34.754Z,3.70
2022-08-17T13:15:01.845Z,4.10
2022-08-17T13:17:35.787Z,4.00
2022-08-17T13:20:06.127Z,3.90
2022-08-17T13:22:32.887Z,3.92
2022-08-17T13:25:04.045Z,4.07
2022-08-17T13:27:31.753Z,4.15
2022-08-17T13:30:02.218Z,3.80
2022-08-17T13:32:47.607Z,4.05
2022-08-17T13:35:34.466Z,4.63
2022-08-17T13:38:10.313Z,3.40
2022-08-17T13:40:49.044Z,3.65
2022-08-17T13:43:44.931Z,3.78
2022-08-17T13:46:31.042Z,3.58
2022-08-17T13:49:01.806Z,3.90
2022-08-17T13:51:42.359Z,4.25
2022-08-17T13:54:32.511Z,3.75
2022-08-17T13:57:02.371Z,4.05
2022-08-17T13:59:54.141Z,3.80
2022-08-17T14:02:23.276Z,3.70
2022-08-17T14:04:56.417Z,3.58
2022-08-17T14:07:30.155Z,3.80
2022-08-17T14:10:24.992Z,3.45
2022-08-17T14:12:52.741Z,3.70
2022-08-17T14:15:22.445Z,3.40
2022-08-17T14:17:51.511Z,3.78
2022-08-17T14:20:22.268Z,3.80
2022-08-17T14:22:53.721Z,3.50
2022-08-17T14:25:24.466Z,3.38
2022-08-17T14:28:08.941Z,3.75
2022-08-17T14:30:37.711Z,3.92
2022-08-17T14:33:05.885Z,3.83
2022-08-17T14:35:53.564Z,3.78
2022-08-17T14:38:20.828Z,3.60
2022-08-17T14:40:49.136Z,3.75
2022-08-17T14:43:15.802Z,4.45
2022-08-17T14:45:45.406Z,4.10
2022-08-17T14:48:13.912Z,4.28
2022-08-17T14:50:42.355Z,3.95
2022-08-17T14:53:13.369Z,3.72
2022-08-17T14:55:40.395Z,6.22
2022-08-17T14:58:10.307Z,3.72
2022-08-17T15:00:37.821Z,4.18
2022-08-17T15:03:05.325Z,3.80
2022-08-17T15:05:35.371Z,3.75
2022-08-17T15:08:03.450Z,4.40
2022-08-17T15:10:31.506Z,4.00
2022-08-17T15:12:58.716Z,3.30
2022-08-17T15:15:25.887Z,3.80
2022-08-17T15:17:52.344Z,3.45
2022-08-17T15:20:29.697Z,3.65
2022-08-17T15:22:59.025Z,3.70
2022-08-17T15:25:27.738Z,10.80
2022-08-17T15:27:55.970Z,5.20
2022-08-17T15:30:23.469Z,4.05
2022-08-17T15:32:55.181Z,3.63
2022-08-17T15:35:27.442Z,3.83
2022-08-17T15:37:56.689Z,3.78
2022-08-17T15:40:23.302Z,3.65
2022-08-17T15:42:51.037Z,4.18
2022-08-17T15:45:22.873Z,3.72
2022-08-17T15:47:49.443Z,3.42
2022-08-17T15:50:16.063Z,3.90
2022-08-17T15:52:44.853Z,5.05
2022-08-17T15:55:13.864Z,3.60
2022-08-17T15:57:40.679Z,3.53
2022-08-17T16:00:09.397Z,3.67
2022-08-17T16:03:13.363Z,3.70
2022-08-17T16:05:24.960Z,3.22
2022-08-17T16:07:52.281Z,3.40
2022-08-17T16:10:19.576Z,3.38
2022-08-17T16:12:47.958Z,3.72
2022-08-17T16:15:15.423Z,6.90
2022-08-17T16:17:42.262Z,3.65
2022-08-17T16:20:20.698Z,3.03
2022-08-17T16:22:48.258Z,3.60
2022-08-17T16:25:22.002Z,3.40
2022-08-17T16:27:53.530Z,3.80
2022-08-17T16:30:23.543Z,3.70
2022-08-17T16:32:51.784Z,3.47
2022-08-17T16:35:21.214Z,3.80
2022-08-17T16:37:48.276Z,4.30
2022-08-17T16:40:17.027Z,4.57
2022-08-17T16:42:45.865Z,6.35
2022-08-17T16:45:19.774Z,6.43
2022-08-17T16:47:48.222Z,5.55
2022-08-17T16:50:17.638Z,3.78
2022-08-17T16:52:48.385Z,3.58
2022-08-17T16:55:19.363Z,3.20
2022-08-17T16:57:49.971Z,3.28
2022-08-17T17:00:19.271Z,3.53
2022-08-17T17:02:47.823Z,3.60
2022-08-17T17:05:14.360Z,3.55
2022-08-17T17:08:12.788Z,3.53
2022-08-17T17:10:47.808Z,3.47
2022-08-17T17:13:23.715Z,3.67
2022-08-17T17:15:58.884Z,3.20
2022-08-17T17:18:41.188Z,3.70
2022-08-17T17:21:13.868Z,3.50
2022-08-17T17:23:52.339Z,3.50
2022-08-17T17:26:34.773Z,3.35
2022-08-17T17:29:10.245Z,3.38
2022-08-17T17:31:45.137Z,4.05
2022-08-17T17:34:15.841Z,3.50
2022-08-17T17:36:50.145Z,3.28
2022-08-17T17:39:31.823Z,3.47
2022-08-17T17:42:02.483Z,3.90
2022-08-17T17:44:43.496Z,3.53
2022-08-17T17:47:11.868Z,3.72
2022-08-17T17:49:41.318Z,3.72
2022-08-17T17:52:19.133Z,4.05
2022-08-17T17:55:00.711Z,4.50
2022-08-17T17:57:58.015Z,4.50
2022-08-17T18:00:31.174Z,4.30
2022-08-17T18:03:06.848Z,3.97
2022-08-17T18:05:45.724Z,4.03
2022-08-17T18:08:34.764Z,4.10
2022-08-17T18:11:34.714Z,4.72
2022-08-17T18:14:29.271Z,4.13
2022-08-17T18:16:59.659Z,3.95
2022-08-17T18:19:28.178Z,4.82
2022-08-17T18:22:07.213Z,4.40
2022-08-17T18:24:37.832Z,4.80
2022-08-17T18:27:19.045Z,5.72
2022-08-17T18:29:47.599Z,6.43
2022-08-17T18:32:49.562Z,6.45
2022-08-17T18:35:19.025Z,5.97
2022-08-17T18:38:19.473Z,7.60
2022-08-17T18:40:56.435Z,6.75
2022-08-17T18:46:40.080Z,6.13
2022-08-17T18:49:27.160Z,6.93
2022-08-17T18:52:13.954Z,7.13
2022-08-17T18:54:59.311Z,7.03
2022-08-17T18:57:42.929Z,7.00
2022-08-17T19:00:17.264Z,7.65
2022-08-17T19:02:57.219Z,8.23
2022-08-17T19:05:35.181Z,7.65
2022-08-17T19:08:37.838Z,7.80
2022-08-17T19:11:10.208Z,6.80
2022-08-17T19:13:57.562Z,7.20
2022-08-17T19:16:32.435Z,6.93
2022-08-17T19:19:05.592Z,7.20
2022-08-17T19:21:40.351Z,6.75
2022-08-17T19:24:19.377Z,6.38
2022-08-17T19:27:14.831Z,6.80
2022-08-17T19:29:53.926Z,6.90
2022-08-17T19:32:26.555Z,6.60
2022-08-17T19:34:53.239Z,7.03
2022-08-17T19:38:01.713Z,6.75
2022-08-17T19:41:00.538Z,6.20
2022-08-17T19:43:55.691Z,6.70
2022-08-17T19:47:01.294Z,5.78
2022-08-17T19:49:40.925Z,6.25
2022-08-17T19:52:30.597Z,6.15
2022-08-17T19:55:23.894Z,6.18
2022-08-17T19:57:50.504Z,6.07
2022-08-17T20:00:18.708Z,6.03
2022-08-17T20:03:05.609Z,5.93
2022-08-17T20:06:01.322Z,5.50
2022-08-17T20:08:27.188Z,4.63
2022-08-17T20:10:55.436Z,4.82
2022-08-17T20:13:35.450Z,4.80
2022-08-17T20:16:03.816Z,4.80
2022-08-17T20:18:33.269Z,5.20
2022-08-17T20:21:06.097Z,4.70
2022-08-17T20:23:53.357Z,4.40
2022-08-17T20:26:38.690Z,5.40
2022-08-17T20:29:15.350Z,5.03
2022-08-17T20:31:53.965Z,5.28
2022-08-17T20:34:34.884Z,5.22
2022-08-17T20:37:10.778Z,5.03
2022-08-17T20:39:42.224Z,6.07
2022-08-17T20:42:20.868Z,5.72
2022-08-17T20:44:55.570Z,6.50
2022-08-17T20:47:31.863Z,6.35
2022-08-17T20:50:05.402Z,7.10
2022-08-17T20:53:00.709Z,7.25
2022-08-17T20:55:51.426Z,8.20
2022-08-17T20:58:25.236Z,8.85
2022-08-17T21:00:57.713Z,9.55
2022-08-17T21:03:24.303Z,8.80
2022-08-17T21:06:17.149Z,9.05
2022-08-17T21:08:59.005Z,9.75
2022-08-17T21:11:57.160Z,9.60
2022-08-17T21:14:44.542Z,10.65
2022-08-17T21:17:26.249Z,9.90
2022-08-17T21:20:27.030Z,9.82
2022-08-17T21:23:18.113Z,8.65
2022-08-17T21:26:06.332Z,6.82
2022-08-17T21:28:35.703Z,6.78
2022-08-17T21:31:08.529Z,6.72
2022-08-17T21:33:39.580Z,6.93
2022-08-17T21:36:12.057Z,6.88
2022-08-17T21:38:42.297Z,6.88
2022-08-17T21:41:31.775Z,7.20
2022-08-17T21:44:30.509Z,7.82
2022-08-17T21:47:24.485Z,7.55
2022-08-17T21:49:52.368Z,8.20
2022-08-17T21:52:21.847Z,8.70
2022-08-17T21:54:53.066Z,8.75
2022-08-17T21:57:23.455Z,8.18
2022-08-17T22:00:01.894Z,7.60
2022-08-17T22:02:41.641Z,7.72
2022-08-17T22:05:13.223Z,8.13
2022-08-17T22:07:42.669Z,7.45
2022-08-17T22:10:30.547Z,8.43
2022-08-17T22:13:20.600Z,8.27
2022-08-17T22:16:15.632Z,8.73
2022-08-17T22:18:58.755Z,8.43
2022-08-17T22:21:26.245Z,8.73
2022-08-17T22:24:07.567Z,8.80
2022-08-17T22:27:00.080Z,8.45
2022-08-17T22:29:48.017Z,9.07
2022-08-17T22:32:45.607Z,8.20
2022-08-17T22:35:42.056Z,9.05
2022-08-17T22:38:20.708Z,8.40
2022-08-17T22:40:53.799Z,8.38
2022-08-17T22:43:26.055Z,9.68
2022-08-17T22:45:55.777Z,9.40
2022-08-17T22:48:27.412Z,9.20
2022-08-17T22:51:13.417Z,9.90
2022-08-17T22:54:15.092Z,11.90
2022-08-17T22:57:19.130Z,9.27
2022-08-17T22:59:54.667Z,9.45
2022-08-17T23:02:26.335Z,9.10
2022-08-17T23:05:16.580Z,10.90
2022-08-17T23:07:45.457Z,10.38
2022-08-17T23:10:13.857Z,10.52
2022-08-17T23:12:40.594Z,11.55
2022-08-17T23:15:17.372Z,11.07
2022-08-17T23:17:45.367Z,11.90
2022-08-17T23:20:14.998Z,10.35
2022-08-17T23:22:51.440Z,10.73
2022-08-17T23:25:29.509Z,9.82
2022-08-17T23:27:58.378Z,9.52
2022-08-17T23:30:25.646Z,9.52
2022-08-17T23:32:54.318Z,9.75
2022-08-17T23:35:39.650Z,9.68
2022-08-17T23:38:07.815Z,9.35
2022-08-17T23:40:34.479Z,9.25
2022-08-17T23:43:01.058Z,9.48
2022-08-17T23:45:32.495Z,9.45
2022-08-17T23:47:58.930Z,10.93
2022-08-17T23:50:25.432Z,9.90
2022-08-17T23:52:57.618Z,10.60
2022-08-17T23:55:24.045Z,10.57
2022-08-17T23:57:50.694Z,8.68
